Time;durP1;ratioP1;P1;durP2;ratioP2;P2;SDS_P1;SDS_P2;PMS_P1;PMS_P2;Temp;Humidity;BMP_temperature;BMP_pressure;BME280_temperature;BME280_humidity;BME280_pressure;Samples;Min_cycle;Max_cycle;Signal;HPM_P1;HPM_P2
2024/01/23 00:01:21;;;;;;;28.87;4.53;;;9.40;99.90;;;;;;7279842;19;20241;-75
2024/01/23 00:03:46;;;;;;;28.67;3.73;;;9.40;99.90;;;;;;7282992;19;20185;-75
2024/01/23 00:06:12;;;;;;;28.67;4.30;;;9.30;99.90;;;;;;7282913;19;20183;-77
2024/01/23 00:08:38;;;;;;;34.73;4.43;;;9.30;99.90;;;;;;7282086;19;20194;-75
2024/01/23 00:11:07;;;;;;;29.40;4.03;;;9.30;99.90;;;;;;7281779;19;20189;-75
2024/01/23 00:13:32;;;;;;;34.43;4.60;;;9.30;99.90;;;;;;7290160;19;20194;-75
2024/01/23 00:16:01;;;;;;;36.90;5.00;;;9.30;99.90;;;;;;7282034;19;20205;-74
2024/01/23 00:18:26;;;;;;;31.73;4.40;;;9.20;99.90;;;;;;7302998;19;20180;-74
2024/01/23 00:20:52;;;;;;;33.27;4.43;;;9.10;99.90;;;;;;7281933;19;20195;-75
2024/01/23 00:23:18;;;;;;;31.53;4.30;;;9.10;99.90;;;;;;7281870;19;20575;-74
2024/01/23 00:25:43;;;;;;;29.07;4.57;;;9.10;99.90;;;;;;7280714;19;20193;-75
2024/01/23 00:28:09;;;;;;;32.83;4.27;;;9.10;99.90;;;;;;7280370;19;20219;-75
2024/01/23 00:30:35;;;;;;;35.10;4.30;;;9.10;99.90;;;;;;7281661;19;20333;-75
2024/01/23 00:33:02;;;;;;;29.93;4.23;;;9.10;99.90;;;;;;7282012;19;20260;-74
2024/01/23 00:35:28;;;;;;;44.20;5.87;;;9.10;99.90;;;;;;7295338;19;20222;-74
2024/01/23 00:37:53;;;;;;;36.67;4.23;;;9.10;99.90;;;;;;7293997;19;20182;-75
2024/01/23 00:40:19;;;;;;;34.93;5.20;;;9.10;99.90;;;;;;7282063;19;20762;-74
2024/01/23 00:42:45;;;;;;;41.00;5.50;;;9.10;99.90;;;;;;7281598;19;20277;-75
2024/01/23 00:45:10;;;;;;;37.63;4.87;;;9.20;99.90;;;;;;7280022;19;20189;-74
2024/01/23 00:47:36;;;;;;;34.30;5.17;;;9.20;99.90;;;;;;7279274;19;20202;-74
2024/01/23 00:50:02;;;;;;;35.27;4.63;;;9.20;99.90;;;;;;7282147;19;20211;-75
2024/01/23 00:52:27;;;;;;;38.93;4.97;;;9.30;99.90;;;;;;7297253;19;20668;-74
2024/01/23 00:54:58;;;;;;;33.70;4.80;;;9.30;99.90;;;;;;7291079;19;20186;-74
2024/01/23 00:57:24;;;;;;;28.73;4.70;;;9.30;99.90;;;;;;7280456;19;20191;-76
2024/01/23 00:59:50;;;;;;;41.23;5.60;;;9.30;99.90;;;;;;7281153;19;20214;-74
2024/01/23 01:02:15;;;;;;;33.20;4.83;;;9.30;99.90;;;;;;7279649;19;20420;-74
2024/01/23 01:04:46;;;;;;;34.30;5.07;;;9.30;99.90;;;;;;7281842;19;20186;-75
2024/01/23 01:07:14;;;;;;;33.27;4.53;;;9.30;99.90;;;;;;7279783;19;20198;-74
2024/01/23 01:09:40;;;;;;;33.27;4.30;;;9.30;99.90;;;;;;7278629;19;20189;-74
2024/01/23 01:12:06;;;;;;;34.50;5.10;;;9.30;99.90;;;;;;7280108;19;20189;-74
2024/01/23 01:14:37;;;;;;;41.80;4.90;;;9.10;99.90;;;;;;7278492;19;20189;-74
2024/01/23 01:17:04;;;;;;;29.73;4.97;;;9.00;99.90;;;;;;7279415;19;20193;-74
2024/01/23 01:19:29;;;;;;;32.27;5.07;;;8.90;99.90;;;;;;7279305;19;20345;-74
2024/01/23 01:21:55;;;;;;;34.97;4.20;;;8.90;99.90;;;;;;7302202;19;20223;-74
2024/01/23 01:24:21;;;;;;;29.10;4.27;;;8.80;99.90;;;;;;7279978;19;20177;-74
2024/01/23 01:26:46;;;;;;;32.60;3.83;;;8.70;99.90;;;;;;7276968;19;20949;-74
2024/01/23 01:29:12;;;;;;;30.07;4.63;;;8.80;99.90;;;;;;7276474;19;20193;-74
2024/01/23 01:31:38;;;;;;;27.10;4.23;;;8.80;99.90;;;;;;7279681;19;20184;-74
2024/01/23 01:34:03;;;;;;;27.47;4.40;;;8.80;99.90;;;;;;7277174;19;20192;-75
2024/01/23 01:36:29;;;;;;;32.23;3.80;;;8.70;99.90;;;;;;7280137;19;20185;-75
2024/01/23 01:39:01;;;;;;;24.70;3.93;;;8.80;99.90;;;;;;7301864;19;20193;-75
2024/01/23 01:41:26;;;;;;;28.13;3.40;;;8.80;99.90;;;;;;7279902;19;20185;-74
2024/01/23 01:43:52;;;;;;;24.40;3.70;;;8.90;99.90;;;;;;7279801;19;20185;-75
2024/01/23 01:46:28;;;;;;;27.63;3.70;;;8.90;99.90;;;;;;7280474;19;20194;-75
2024/01/23 01:48:54;;;;;;;35.77;4.43;;;8.90;99.90;;;;;;7278552;19;20251;-75
2024/01/23 01:51:23;;;;;;;37.70;5.00;;;8.90;99.90;;;;;;7276514;19;20686;-76
2024/01/23 01:53:49;;;;;;;31.50;4.70;;;8.90;99.90;;;;;;7279637;19;20174;-75
2024/01/23 01:56:18;;;;;;;30.23;4.10;;;8.90;99.90;;;;;;7278771;19;20186;-75
2024/01/23 01:58:45;;;;;;;34.33;4.30;;;8.90;99.90;;;;;;7277614;19;20185;-73
2024/01/23 02:01:15;;;;;;;23.23;3.93;;;8.80;99.90;;;;;;7278869;19;20226;-74
2024/01/23 02:03:41;;;;;;;29.23;4.37;;;8.80;99.90;;;;;;7280375;19;20209;-75
2024/01/23 02:06:07;;;;;;;35.93;4.90;;;8.70;99.90;;;;;;7278182;19;20636;-74
2024/01/23 02:08:36;;;;;;;29.23;4.07;;;8.70;99.90;;;;;;7277669;19;20184;-74
2024/01/23 02:11:03;;;;;;;29.47;3.50;;;8.70;99.90;;;;;;7279333;19;20224;-75
2024/01/23 02:13:29;;;;;;;33.10;4.60;;;8.70;99.90;;;;;;7287615;19;20180;-75
2024/01/23 02:15:55;;;;;;;27.27;4.03;;;8.70;99.90;;;;;;7298191;19;20184;-74
2024/01/23 02:18:21;;;;;;;29.80;3.93;;;8.60;99.90;;;;;;7279964;19;20223;-74
2024/01/23 02:20:47;;;;;;;36.70;4.23;;;8.70;99.90;;;;;;7277637;19;20185;-75
2024/01/23 02:23:13;;;;;;;30.73;3.93;;;8.60;99.90;;;;;;7277562;19;20200;-74
2024/01/23 02:25:40;;;;;;;35.20;5.10;;;8.60;99.90;;;;;;7277307;19;20203;-74
2024/01/23 02:28:07;;;;;;;33.93;3.87;;;8.60;99.90;;;;;;7277350;19;20218;-74
2024/01/23 02:30:34;;;;;;;27.83;4.07;;;8.60;99.90;;;;;;7278006;19;20185;-75
2024/01/23 02:33:09;;;;;;;31.93;4.47;;;8.60;99.90;;;;;;7278128;19;20725;-74
2024/01/23 02:35:35;;;;;;;31.17;4.40;;;8.60;99.90;;;;;;7276558;19;20288;-74
2024/01/23 02:38:01;;;;;;;23.87;3.53;;;8.50;99.90;;;;;;7278583;19;20192;-74
2024/01/23 02:40:26;;;;;;;27.97;3.90;;;8.50;99.90;;;;;;7301387;19;20546;-74
2024/01/23 02:42:53;;;;;;;25.03;4.53;;;8.40;99.90;;;;;;7291920;19;20216;-74
2024/01/23 02:45:20;;;;;;;26.90;4.33;;;8.40;99.90;;;;;;7293235;19;20182;-75
2024/01/23 02:47:46;;;;;;;30.57;4.67;;;8.40;99.90;;;;;;7291599;19;20358;-76
2024/01/23 02:50:12;;;;;;;22.97;3.20;;;8.40;99.90;;;;;;7291140;19;20248;-75
2024/01/23 02:52:37;;;;;;;30.87;3.93;;;8.40;99.90;;;;;;7293116;19;20184;-75
2024/01/23 02:55:04;;;;;;;25.47;3.77;;;8.30;99.90;;;;;;7292107;19;20550;-74
2024/01/23 02:57:30;;;;;;;28.73;3.73;;;8.20;99.90;;;;;;7294019;19;20686;-74
2024/01/23 02:59:56;;;;;;;26.17;3.40;;;8.20;99.90;;;;;;7313486;19;20188;-74
2024/01/23 03:02:22;;;;;;;30.07;3.73;;;8.20;99.90;;;;;;7288932;19;20652;-75
2024/01/23 03:04:48;;;;;;;25.40;3.40;;;8.20;99.90;;;;;;7291414;19;20612;-74
2024/01/23 03:07:15;;;;;;;25.13;2.90;;;8.20;99.90;;;;;;7291612;19;20185;-75
2024/01/23 03:09:41;;;;;;;27.20;3.50;;;8.10;99.90;;;;;;7290271;19;20216;-74
2024/01/23 03:12:22;;;;;;;25.43;3.40;;;8.00;99.90;;;;;;7291651;19;20224;-74
2024/01/23 03:14:50;;;;;;;25.83;3.73;;;8.10;99.90;;;;;;7291960;19;20209;-74
2024/01/23 03:17:16;;;;;;;28.23;3.53;;;8.10;99.90;;;;;;7291118;19;20192;-74
2024/01/23 03:19:44;;;;;;;28.40;3.73;;;8.10;99.90;;;;;;7290287;19;20233;-74
2024/01/23 03:22:09;;;;;;;28.30;3.40;;;8.10;99.90;;;;;;7289796;19;20200;-74
2024/01/23 03:24:40;;;;;;;24.13;3.57;;;8.10;99.90;;;;;;7290058;19;20197;-75
2024/01/23 03:27:06;;;;;;;25.97;3.50;;;8.10;99.90;;;;;;7290709;19;20199;-74
2024/01/23 03:29:40;;;;;;;27.77;3.07;;;8.10;99.90;;;;;;7290604;19;20189;-74
2024/01/23 03:32:07;;;;;;;27.77;3.90;;;8.10;99.90;;;;;;7290575;19;20204;-75
2024/01/23 03:34:33;;;;;;;24.10;3.40;;;8.10;99.90;;;;;;7288592;19;20714;-75
2024/01/23 03:37:02;;;;;;;21.20;3.17;;;8.10;99.90;;;;;;7297546;19;20197;-75
2024/01/23 03:39:28;;;;;;;24.63;3.60;;;8.10;99.90;;;;;;7312202;19;20266;-75
2024/01/23 03:41:54;;;;;;;22.13;3.60;;;8.00;99.90;;;;;;7288961;19;20189;-74
2024/01/23 03:44:24;;;;;;;26.53;3.23;;;8.00;99.90;;;;;;7290406;19;20197;-75
2024/01/23 03:46:50;;;;;;;22.93;3.53;;;8.10;99.90;;;;;;7289087;19;20623;-73
2024/01/23 03:49:16;;;;;;;25.20;3.70;;;8.10;99.90;;;;;;7288704;19;20576;-74
2024/01/23 03:51:43;;;;;;;25.43;3.27;;;8.00;99.90;;;;;;7289099;19;20188;-74
2024/01/23 03:54:08;;;;;;;30.77;3.27;;;8.10;99.90;;;;;;7281364;19;21007;-73
2024/01/23 03:56:34;;;;;;;23.33;3.10;;;8.00;99.90;;;;;;7282893;19;20195;-74
2024/01/23 03:59:00;;;;;;;23.20;3.10;;;8.00;99.90;;;;;;7283054;19;20189;-75
2024/01/23 04:01:25;;;;;;;24.57;3.97;;;8.00;99.90;;;;;;7303534;19;20542;-74
2024/01/23 04:03:51;;;;;;;24.83;3.10;;;8.00;99.90;;;;;;7281526;19;20188;-74
2024/01/23 04:06:17;;;;;;;21.67;2.87;;;8.00;99.90;;;;;;7282723;19;20272;-74
2024/01/23 04:08:43;;;;;;;21.27;2.83;;;8.00;99.90;;;;;;7280872;19;20778;-75
2024/01/23 04:11:09;;;;;;;22.40;3.33;;;8.00;99.90;;;;;;7282427;19;20200;-74
2024/01/23 04:13:36;;;;;;;21.10;3.70;;;8.00;99.90;;;;;;7282047;19;20271;-74
2024/01/23 04:16:02;;;;;;;30.57;3.60;;;8.00;99.90;;;;;;7280910;19;20192;-74
2024/01/23 04:18:28;;;;;;;20.33;2.83;;;8.00;99.90;;;;;;7301848;19;20188;-74
2024/01/23 04:20:54;;;;;;;25.77;3.10;;;8.00;99.90;;;;;;7291658;19;20200;-74
2024/01/23 04:23:19;;;;;;;24.37;3.07;;;8.00;99.90;;;;;;7280764;19;20188;-74
2024/01/23 04:25:45;;;;;;;26.20;3.53;;;7.90;99.90;;;;;;7281798;19;20181;-76
2024/01/23 04:28:11;;;;;;;22.40;3.60;;;7.90;99.90;;;;;;7280779;19;20192;-75
2024/01/23 04:30:38;;;;;;;20.10;3.10;;;7.90;99.90;;;;;;7281738;19;20181;-73
2024/01/23 04:33:04;;;;;;;23.03;3.70;;;7.80;99.90;;;;;;7280171;19;20636;-74
2024/01/23 04:35:29;;;;;;;22.63;3.40;;;7.80;99.90;;;;;;7285235;19;20189;-74
2024/01/23 04:37:55;;;;;;;21.57;3.27;;;7.80;99.90;;;;;;7302223;19;20176;-75
2024/01/23 04:40:21;;;;;;;18.67;3.07;;;7.70;99.90;;;;;;7280006;19;20183;-75
2024/01/23 04:42:47;;;;;;;23.97;2.70;;;7.70;99.90;;;;;;7282591;19;20320;-74
2024/01/23 04:45:13;;;;;;;25.50;3.47;;;7.60;99.90;;;;;;7281233;19;20608;-74
2024/01/23 04:47:39;;;;;;;25.03;3.30;;;7.60;99.90;;;;;;7280094;19;20205;-74
2024/01/23 04:50:05;;;;;;;24.93;3.23;;;7.70;99.90;;;;;;7280173;19;20194;-74
2024/01/23 04:52:31;;;;;;;26.17;3.17;;;7.70;99.90;;;;;;7278543;19;20185;-74
2024/01/23 04:54:56;;;;;;;27.37;3.50;;;7.70;99.90;;;;;;7301748;19;20181;-74
2024/01/23 04:57:22;;;;;;;25.00;3.70;;;7.70;99.90;;;;;;7280533;19;20692;-74
2024/01/23 04:59:48;;;;;;;26.73;3.60;;;7.60;99.90;;;;;;7280462;19;22495;-75
2024/01/23 05:02:14;;;;;;;28.57;3.87;;;7.70;99.90;;;;;;7281308;19;20534;-74
2024/01/23 05:04:40;;;;;;;24.47;3.30;;;7.70;99.90;;;;;;7280411;19;20202;-74
2024/01/23 05:07:05;;;;;;;22.80;3.33;;;7.60;99.90;;;;;;7280767;19;20695;-74
2024/01/23 05:09:31;;;;;;;23.57;3.13;;;7.60;99.90;;;;;;7278392;19;20261;-74
2024/01/23 05:11:58;;;;;;;30.57;4.10;;;7.50;99.90;;;;;;7302839;19;20184;-74
2024/01/23 05:14:23;;;;;;;28.73;4.20;;;7.50;99.90;;;;;;7280360;19;20188;-74
2024/01/23 05:16:49;;;;;;;20.43;2.63;;;7.50;99.90;;;;;;7278529;19;20178;-74
2024/01/23 05:19:15;;;;;;;27.80;3.77;;;7.50;99.90;;;;;;7280360;19;20188;-74
2024/01/23 05:21:41;;;;;;;21.67;3.27;;;7.50;99.90;;;;;;7277474;19;20199;-75
2024/01/23 05:24:07;;;;;;;32.80;4.07;;;7.50;99.90;;;;;;7277454;19;20518;-74
2024/01/23 05:26:32;;;;;;;26.60;3.97;;;7.50;99.90;;;;;;7277331;19;20226;-74
2024/01/23 05:28:58;;;;;;;27.07;3.93;;;7.50;99.90;;;;;;7299940;19;20651;-75
2024/01/23 05:31:24;;;;;;;26.60;3.60;;;7.40;99.90;;;;;;7279055;19;20190;-74
2024/01/23 05:33:49;;;;;;;59.77;5.63;;;7.40;99.90;;;;;;7278013;19;20186;-74
2024/01/23 05:36:15;;;;;;;44.53;4.93;;;7.40;99.90;;;;;;7279517;19;20532;-74
2024/01/23 05:38:41;;;;;;;31.13;3.87;;;7.50;99.90;;;;;;7278708;19;20205;-74
2024/01/23 05:41:07;;;;;;;39.23;5.37;;;7.40;99.90;;;;;;7260185;19;20193;-75
2024/01/23 05:43:32;;;;;;;30.67;4.63;;;7.40;99.90;;;;;;7278989;19;20199;-74
2024/01/23 05:45:58;;;;;;;36.20;4.53;;;7.30;99.90;;;;;;7301551;19;20208;-74
2024/01/23 05:48:24;;;;;;;35.90;4.10;;;7.30;99.90;;;;;;7278553;19;20197;-75
2024/01/23 05:50:49;;;;;;;33.53;4.40;;;7.30;99.90;;;;;;7278086;19;20249;-75
2024/01/23 05:53:15;;;;;;;35.83;4.47;;;7.30;99.90;;;;;;7276081;19;20185;-74
2024/01/23 05:55:41;;;;;;;41.00;5.20;;;7.30;99.90;;;;;;7276939;19;20192;-74
2024/01/23 05:58:06;;;;;;;36.03;4.00;;;7.30;99.90;;;;;;7278365;19;20197;-74
2024/01/23 06:00:32;;;;;;;32.77;4.23;;;7.30;99.90;;;;;;7276995;19;20185;-74
2024/01/23 06:02:58;;;;;;;30.87;4.30;;;7.30;99.90;;;;;;7300731;19;20272;-74
2024/01/23 06:05:24;;;;;;;27.60;4.60;;;7.30;99.90;;;;;;7279092;19;20651;-74
2024/01/23 06:07:50;;;;;;;32.77;4.40;;;7.20;99.90;;;;;;7277151;19;20187;-75
2024/01/23 06:10:17;;;;;;;37.30;4.77;;;7.20;99.90;;;;;;7278856;19;20205;-74
2024/01/23 06:12:43;;;;;;;43.73;4.57;;;7.20;99.90;;;;;;7277233;19;20215;-74
2024/01/23 06:15:10;;;;;;;32.67;4.80;;;7.10;99.90;;;;;;7277875;19;20202;-74
2024/01/23 06:17:36;;;;;;;37.90;4.67;;;7.10;99.90;;;;;;7277701;19;20193;-74
2024/01/23 06:20:04;;;;;;;37.93;5.47;;;7.10;99.90;;;;;;7278714;19;20189;-74
2024/01/23 06:22:30;;;;;;;37.37;4.93;;;7.10;99.90;;;;;;7283934;19;20189;-75
2024/01/23 06:25:03;;;;;;;32.30;4.73;;;7.10;99.90;;;;;;7300034;19;20177;-75
2024/01/23 06:27:29;;;;;;;40.63;5.00;;;7.00;99.90;;;;;;7271084;19;20184;-75
2024/01/23 06:29:55;;;;;;;40.23;4.97;;;7.10;99.90;;;;;;7294226;19;20185;-74
2024/01/23 06:32:21;;;;;;;32.13;4.73;;;7.10;99.90;;;;;;7278274;19;20194;-75
2024/01/23 06:34:46;;;;;;;41.37;4.87;;;7.00;99.90;;;;;;7277639;19;20593;-75
2024/01/23 06:37:12;;;;;;;39.83;5.43;;;7.00;99.90;;;;;;7277033;19;20193;-76
2024/01/23 06:39:39;;;;;;;38.97;5.27;;;6.90;99.90;;;;;;7276954;19;20912;-75
2024/01/23 06:42:05;;;;;;;39.23;5.77;;;6.90;99.90;;;;;;7276793;19;20553;-75
2024/01/23 06:44:31;;;;;;;32.43;4.63;;;7.00;99.90;;;;;;7276582;19;20216;-75
2024/01/23 06:46:56;;;;;;;39.77;5.37;;;6.90;99.90;;;;;;7298952;19;20178;-76
2024/01/23 06:49:22;;;;;;;34.50;4.53;;;6.90;99.90;;;;;;7278717;19;20285;-76
2024/01/23 06:51:48;;;;;;;40.17;5.33;;;7.00;99.90;;;;;;7278964;19;20216;-76
2024/01/23 06:54:13;;;;;;;38.10;5.57;;;7.00;99.90;;;;;;7276922;19;20188;-76
2024/01/23 06:56:39;;;;;;;30.80;4.40;;;7.00;99.90;;;;;;7276801;19;20193;-76
2024/01/23 06:59:05;;;;;;;30.47;4.97;;;7.00;99.90;;;;;;7276910;19;20192;-77
2024/01/23 07:01:31;;;;;;;38.87;5.43;;;6.90;99.90;;;;;;7277573;19;20193;-76
2024/01/23 07:03:57;;;;;;;36.17;5.30;;;7.00;99.90;;;;;;7298579;19;20198;-75
2024/01/23 07:06:23;;;;;;;49.27;5.63;;;7.10;99.90;;;;;;7276566;19;20732;-75
2024/01/23 07:08:49;;;;;;;38.07;5.27;;;7.10;99.90;;;;;;7276977;19;20194;-77
2024/01/23 07:11:14;;;;;;;35.07;4.97;;;7.10;99.90;;;;;;7277523;19;20614;-75
2024/01/23 07:13:40;;;;;;;42.40;5.60;;;7.10;99.90;;;;;;7275602;19;20219;-74
2024/01/23 07:16:07;;;;;;;34.73;5.57;;;6.90;99.90;;;;;;7276189;19;20201;-74
2024/01/23 07:18:32;;;;;;;35.07;4.93;;;7.00;99.90;;;;;;7275916;19;20193;-74
2024/01/23 07:20:59;;;;;;;37.40;4.90;;;7.00;99.90;;;;;;7297237;19;20285;-75
2024/01/23 07:23:25;;;;;;;26.27;4.80;;;6.90;99.90;;;;;;7276550;19;20198;-76
2024/01/23 07:25:50;;;;;;;33.73;4.13;;;6.90;99.90;;;;;;7274820;19;20200;-75
2024/01/23 07:28:16;;;;;;;31.67;4.43;;;6.90;99.90;;;;;;7277559;19;20199;-74
2024/01/23 07:30:42;;;;;;;37.43;5.10;;;6.90;99.90;;;;;;7283844;19;20204;-76
2024/01/23 07:33:09;;;;;;;35.30;4.93;;;6.80;99.90;;;;;;7282232;19;20185;-75
2024/01/23 07:35:35;;;;;;;39.07;4.20;;;6.90;99.90;;;;;;7282134;19;20636;-75
2024/01/23 07:38:01;;;;;;;40.40;4.83;;;6.90;99.90;;;;;;7281911;19;20185;-74
2024/01/23 07:40:26;;;;;;;38.43;5.47;;;6.90;99.90;;;;;;7305205;19;20252;-75
2024/01/23 07:42:52;;;;;;;30.17;4.83;;;6.90;99.90;;;;;;7282157;19;20600;-75
2024/01/23 07:45:19;;;;;;;39.20;4.60;;;6.90;99.90;;;;;;7282307;19;20746;-75
2024/01/23 07:47:45;;;;;;;28.93;4.70;;;6.90;99.90;;;;;;7281940;19;20184;-75
2024/01/23 07:50:12;;;;;;;35.93;5.47;;;6.90;99.90;;;;;;7281935;19;20194;-75
2024/01/23 07:52:37;;;;;;;27.93;4.60;;;7.00;99.90;;;;;;7281823;19;20702;-76
2024/01/23 07:55:03;;;;;;;37.73;4.87;;;6.90;99.90;;;;;;7282100;19;20293;-75
2024/01/23 07:57:29;;;;;;;38.43;5.40;;;7.00;99.90;;;;;;7297364;19;20213;-75
2024/01/23 07:59:55;;;;;;;35.60;5.73;;;7.00;99.90;;;;;;7296040;19;20219;-75
2024/01/23 08:02:21;;;;;;;31.33;4.50;;;7.00;99.90;;;;;;7282606;19;20656;-75
2024/01/23 08:04:46;;;;;;;36.13;5.17;;;7.10;99.90;;;;;;7282981;19;20195;-75
2024/01/23 08:07:12;;;;;;;38.57;4.33;;;7.20;99.90;;;;;;7280663;19;20200;-75
2024/01/23 08:09:38;;;;;;;25.53;4.47;;;7.20;99.90;;;;;;7282228;19;20203;-75
2024/01/23 08:12:06;;;;;;;35.07;5.20;;;7.20;99.90;;;;;;7282218;19;20193;-79
2024/01/23 08:14:31;;;;;;;39.50;5.30;;;7.30;99.90;;;;;;7278386;19;20770;-77
2024/01/23 08:16:57;;;;;;;34.90;4.73;;;7.40;99.90;;;;;;7303539;19;20189;-76
2024/01/23 08:19:23;;;;;;;36.10;4.60;;;7.50;99.90;;;;;;7280907;19;20197;-77
2024/01/23 08:21:49;;;;;;;30.70;6.47;;;7.60;99.90;;;;;;7281052;19;21044;-76
2024/01/23 08:24:15;;;;;;;32.17;4.53;;;7.70;99.90;;;;;;7282084;19;20193;-76
2024/01/23 08:26:41;;;;;;;40.33;6.13;;;7.90;99.90;;;;;;7282031;19;20557;-75
2024/01/23 08:29:09;;;;;;;42.23;5.90;;;8.00;99.90;;;;;;7281408;19;20218;-75
2024/01/23 08:31:35;;;;;;;35.40;5.37;;;8.10;99.90;;;;;;7281968;19;20539;-75
2024/01/23 08:34:01;;;;;;;42.50;5.70;;;8.20;99.90;;;;;;7280469;19;20196;-75
2024/01/23 08:36:27;;;;;;;39.57;5.87;;;8.10;99.90;;;;;;7302195;19;20184;-76
2024/01/23 08:38:53;;;;;;;31.57;5.57;;;8.20;99.90;;;;;;7279384;19;20209;-75
2024/01/23 08:41:18;;;;;;;41.53;5.63;;;8.20;99.90;;;;;;7279990;19;26743;-75
2024/01/23 08:43:44;;;;;;;33.33;5.13;;;8.30;99.90;;;;;;7280253;19;20257;-75
2024/01/23 08:46:12;;;;;;;39.60;5.27;;;8.30;99.90;;;;;;7281874;19;20196;-75
2024/01/23 08:48:38;;;;;;;35.07;5.73;;;8.30;99.90;;;;;;7280225;19;20215;-75
2024/01/23 08:51:04;;;;;;;36.50;5.30;;;8.30;99.90;;;;;;7281242;19;20186;-75
2024/01/23 08:53:30;;;;;;;35.97;5.57;;;8.20;99.90;;;;;;7290319;19;20588;-75
2024/01/23 08:55:56;;;;;;;34.90;5.33;;;8.20;99.90;;;;;;7302942;19;20188;-76
2024/01/23 08:58:23;;;;;;;44.77;5.97;;;8.20;99.90;;;;;;7281133;19;20664;-76
2024/01/23 09:00:48;;;;;;;35.80;5.47;;;8.20;99.90;;;;;;7280934;19;20573;-76
2024/01/23 09:03:14;;;;;;;40.27;5.53;;;8.30;99.90;;;;;;7279377;19;20199;-76
2024/01/23 09:05:40;;;;;;;44.27;6.27;;;8.30;99.90;;;;;;7279966;19;20696;-76
2024/01/23 09:08:05;;;;;;;40.87;6.07;;;8.30;99.90;;;;;;7279416;19;20193;-75
2024/01/23 09:10:31;;;;;;;40.87;5.87;;;8.30;99.90;;;;;;7280889;19;20190;-75
2024/01/23 09:12:57;;;;;;;46.93;5.97;;;8.30;99.90;;;;;;7302104;19;20185;-76
2024/01/23 09:15:22;;;;;;;39.17;5.27;;;8.20;99.90;;;;;;7278419;19;20285;-76
2024/01/23 09:17:48;;;;;;;46.37;5.73;;;8.20;99.90;;;;;;7279680;19;20189;-75
2024/01/23 09:20:14;;;;;;;47.83;5.67;;;8.20;99.90;;;;;;7279215;19;20220;-76
2024/01/23 09:22:41;;;;;;;42.83;6.37;;;8.40;99.90;;;;;;7279200;19;20686;-76
2024/01/23 09:25:07;;;;;;;51.53;6.70;;;8.50;99.90;;;;;;7279706;19;20198;-75
2024/01/23 09:27:33;;;;;;;47.33;6.37;;;8.70;99.90;;;;;;7278686;19;20193;-75
2024/01/23 09:29:58;;;;;;;43.63;6.00;;;8.80;99.90;;;;;;7301698;19;20184;-76
2024/01/23 09:32:24;;;;;;;42.30;6.07;;;8.80;99.90;;;;;;7278383;19;20186;-76
2024/01/23 09:34:50;;;;;;;38.97;6.67;;;8.80;99.90;;;;;;7278523;19;20218;-75
2024/01/23 09:37:16;;;;;;;48.20;6.37;;;9.00;99.90;;;;;;7278703;19;20943;-75
2024/01/23 09:39:42;;;;;;;44.07;5.97;;;9.00;99.90;;;;;;7279059;19;20191;-76
2024/01/23 09:42:10;;;;;;;40.50;5.97;;;9.10;99.90;;;;;;7279668;19;20197;-77
2024/01/23 09:44:36;;;;;;;39.73;6.00;;;9.20;99.90;;;;;;7277736;19;20190;-76
2024/01/23 09:47:04;;;;;;;33.03;5.40;;;9.20;99.90;;;;;;7279022;19;20182;-76
2024/01/23 09:49:34;;;;;;;39.80;5.87;;;9.20;99.90;;;;;;7294277;19;20680;-81
2024/01/23 09:52:03;;;;;;;38.90;6.23;;;9.20;99.90;;;;;;7295965;19;20662;-79
2024/01/23 09:54:31;;;;;;;45.57;6.27;;;9.30;99.90;;;;;;7303899;19;20223;-77
2024/01/23 09:57:01;;;;;;;48.50;6.60;;;9.40;99.90;;;;;;7306044;19;20196;-78
2024/01/23 09:59:27;;;;;;;42.30;6.03;;;9.50;99.90;;;;;;7282073;19;20259;-78
2024/01/23 10:01:53;;;;;;;41.27;6.20;;;9.70;99.90;;;;;;7283370;19;20207;-77
2024/01/23 10:04:21;;;;;;;40.90;6.90;;;9.80;99.90;;;;;;7282348;19;20232;-78
2024/01/23 10:06:47;;;;;;;36.23;5.80;;;10.10;99.90;;;;;;7281776;19;20196;-78
2024/01/23 10:09:13;;;;;;;41.90;5.83;;;10.20;99.90;;;;;;7282518;19;20183;-78
2024/01/23 10:11:39;;;;;;;37.00;5.23;;;10.20;99.90;;;;;;7281632;19;20206;-79
2024/01/23 10:14:07;;;;;;;37.53;5.57;;;10.20;99.90;;;;;;7281956;19;20635;-77
2024/01/23 10:16:32;;;;;;;35.73;5.43;;;10.30;99.90;;;;;;7280170;19;20183;-77
2024/01/23 10:18:59;;;;;;;35.17;5.47;;;10.10;99.90;;;;;;7302864;19;20183;-78
2024/01/23 10:21:25;;;;;;;33.53;5.33;;;10.10;99.90;;;;;;7282197;19;20182;-78
2024/01/23 10:23:52;;;;;;;34.23;5.77;;;10.30;99.90;;;;;;7283045;19;20192;-78
2024/01/23 10:26:19;;;;;;;35.43;5.17;;;10.50;99.90;;;;;;7280611;19;20231;-79
2024/01/23 10:28:46;;;;;;;35.07;5.37;;;10.60;99.90;;;;;;7281692;19;20200;-77
2024/01/23 10:31:13;;;;;;;37.17;5.33;;;10.40;99.90;;;;;;7280635;19;20200;-77
2024/01/23 10:33:40;;;;;;;33.17;5.00;;;10.60;99.90;;;;;;7281179;19;20212;-77
2024/01/23 10:36:08;;;;;;;37.57;5.37;;;10.70;99.90;;;;;;7282456;19;20192;-77
2024/01/23 10:38:37;;;;;;;34.77;5.70;;;10.50;99.90;;;;;;7280010;19;20196;-77
2024/01/23 10:41:06;;;;;;;40.37;6.70;;;10.70;99.90;;;;;;7280864;19;20181;-77
2024/01/23 10:43:33;;;;;;;45.67;7.27;;;10.60;99.90;;;;;;7281926;19;20527;-77
2024/01/23 10:46:02;;;;;;;40.37;7.13;;;10.70;99.90;;;;;;7302961;19;20191;-78
2024/01/23 10:48:32;;;;;;;31.00;6.53;;;10.90;99.90;;;;;;7280604;19;20211;-77
2024/01/23 10:51:07;;;;;;;38.73;6.73;;;11.20;99.90;;;;;;7280386;19;20199;-78
2024/01/23 10:54:04;;;;;;;39.80;7.53;;;11.10;99.90;;;;;;7258285;19;20212;-77
2024/01/23 10:56:44;;;;;;;36.53;7.20;;;11.10;99.90;;;;;;7272842;19;20196;-78
2024/01/23 10:59:19;;;;;;;43.67;7.13;;;11.10;99.90;;;;;;7279403;19;20197;-78
2024/01/23 11:01:45;;;;;;;41.60;7.97;;;11.00;99.90;;;;;;7280922;19;20216;-78
2024/01/23 11:04:15;;;;;;;37.43;6.43;;;10.90;99.90;;;;;;7287200;19;20584;-78
2024/01/23 11:06:59;;;;;;;41.23;6.93;;;10.90;99.90;;;;;;7285171;19;20772;-78
2024/01/23 11:10:06;;;;;;;36.17;6.83;;;10.70;99.90;;;;;;7286190;19;20194;-78
2024/01/23 11:12:45;;;;;;;44.37;6.90;;;10.70;99.90;;;;;;7161866;19;2004655;-78
2024/01/23 11:15:15;;;;;;;38.87;6.33;;;10.80;99.90;;;;;;7286132;19;20658;-77
2024/01/23 11:17:41;;;;;;;37.03;6.37;;;10.80;99.90;;;;;;7287049;19;20621;-78
2024/01/23 11:20:09;;;;;;;37.00;6.40;;;10.70;99.90;;;;;;7287175;19;20290;-78
2024/01/23 11:22:36;;;;;;;36.03;6.87;;;10.70;99.90;;;;;;7288105;19;20209;-78
2024/01/23 11:25:03;;;;;;;39.80;6.70;;;10.70;99.90;;;;;;7289625;19;20188;-77
2024/01/23 11:27:30;;;;;;;38.10;6.73;;;10.70;99.90;;;;;;7308690;19;20315;-78
2024/01/23 11:29:58;;;;;;;40.50;6.17;;;10.80;99.90;;;;;;7287348;19;20222;-78
2024/01/23 11:32:28;;;;;;;40.83;7.10;;;10.80;99.90;;;;;;7286496;19;20670;-78
2024/01/23 11:35:11;;;;;;;37.03;7.57;;;10.90;99.90;;;;;;7286093;19;21037;-78
2024/01/23 11:37:46;;;;;;;38.67;7.33;;;11.10;99.90;;;;;;7183618;19;2004620;-78
2024/01/23 11:40:27;;;;;;;35.03;7.53;;;11.00;99.90;;;;;;7286996;19;20223;-78
2024/01/23 11:42:58;;;;;;;36.07;6.97;;;11.10;99.90;;;;;;7285085;19;20290;-78
2024/01/23 11:45:28;;;;;;;39.23;7.50;;;11.20;99.90;;;;;;7287720;19;20207;-78
2024/01/23 11:47:59;;;;;;;45.67;6.70;;;11.20;99.90;;;;;;7285824;19;20196;-78
2024/01/23 11:50:26;;;;;;;34.23;6.37;;;11.30;99.90;;;;;;7287433;19;20193;-78
2024/01/23 11:52:53;;;;;;;38.90;7.10;;;11.30;99.90;;;;;;7286537;19;20678;-78
2024/01/23 11:55:20;;;;;;;40.23;6.93;;;11.40;99.90;;;;;;7285755;19;20228;-78
2024/01/23 11:57:49;;;;;;;37.03;6.97;;;11.50;99.90;;;;;;7286666;19;20189;-78
2024/01/23 12:00:16;;;;;;;30.73;6.50;;;11.50;99.90;;;;;;7287389;19;20599;-78
2024/01/23 12:02:46;;;;;;;38.57;6.83;;;11.60;99.90;;;;;;7286727;19;20203;-78
2024/01/23 12:05:13;;;;;;;42.20;6.90;;;11.60;99.90;;;;;;7286043;19;20196;-78
2024/01/23 12:07:40;;;;;;;35.97;6.90;;;11.40;99.90;;;;;;7284311;19;20184;-78
2024/01/23 12:10:07;;;;;;;29.87;6.03;;;11.30;99.90;;;;;;7286940;19;20185;-77
2024/01/23 12:12:33;;;;;;;32.07;5.97;;;11.10;99.90;;;;;;7285548;19;20208;-78
2024/01/23 12:14:59;;;;;;;37.30;7.03;;;11.10;99.90;;;;;;7307241;19;20193;-78
2024/01/23 12:17:24;;;;;;;36.40;6.90;;;11.10;99.90;;;;;;7286473;19;20207;-80
2024/01/23 12:19:50;;;;;;;36.10;6.60;;;11.20;99.90;;;;;;7282923;19;21045;-78
2024/01/23 12:22:16;;;;;;;30.47;7.17;;;11.20;99.90;;;;;;7285331;19;20217;-78
2024/01/23 12:24:42;;;;;;;31.97;5.83;;;11.20;99.90;;;;;;7285605;19;20940;-78
2024/01/23 12:27:09;;;;;;;34.00;6.10;;;11.10;99.90;;;;;;7283487;19;20203;-78
2024/01/23 12:29:39;;;;;;;35.43;7.03;;;11.10;99.90;;;;;;7282288;19;20223;-78
2024/01/23 12:32:05;;;;;;;34.23;6.20;;;11.10;99.90;;;;;;7283456;19;20203;-78
2024/01/23 12:34:31;;;;;;;30.80;6.33;;;11.10;99.90;;;;;;7297120;19;20655;-77
2024/01/23 12:37:00;;;;;;;33.00;5.50;;;11.10;99.90;;;;;;7305467;19;20239;-78
2024/01/23 12:39:30;;;;;;;30.00;5.90;;;11.10;99.90;;;;;;7284159;19;20201;-78
2024/01/23 12:42:00;;;;;;;34.10;6.00;;;11.00;99.90;;;;;;7286205;19;20661;-78
2024/01/23 12:44:26;;;;;;;28.43;6.17;;;11.00;99.90;;;;;;7286498;19;20209;-78